Tuscarawas, Ohio
Current Conditions -  °F | °C
As of 11:53 PM on Wednesday 17 Dec 2014 (Local Time) from KPHD Reporting Station
Overcast Overcast  
Wind Chill: 20°   Ceiling: 2500
Heat Index: 29°   Visibility: 10mi
Dew Point: 20°   Wind: 9mph
Humidity: 69%   Direction: 270°W
Pressure: 30.2"   Gusts: NA
Location:  40.39°N, 81.41°W
Report Text: KPHD 180453Z AUTO 27008KT 10SM OVC025 M02/M07 A3020 RMK AO2 SLP236 T10171067 400561017
Loading
Personal Weather Stations






























Interactive Weather Map New forecast layout! Learn more

10-Day Weather Forecast

Advertisements
Track Severe Weather on mobile